Time;durP1;ratioP1;P1;durP2;ratioP2;P2;SDS_P1;SDS_P2;PMS_P1;PMS_P2;Temp;Humidity;BMP_temperature;BMP_pressure;BME280_temperature;BME280_humidity;BME280_pressure;Samples;Min_cycle;Max_cycle;Signal;HPM_P1;HPM_P2
2023/04/27 00:00:05;;;;;;;5.68;2.50;;;;;;;11.01;49.53;94733.81;4950801;28;20205;-61
2023/04/27 00:02:32;;;;;;;10.40;3.03;;;;;;;10.93;49.76;94740.94;4950391;28;20219;-62
2023/04/27 00:04:59;;;;;;;5.65;2.55;;;;;;;10.82;50.17;94734.56;4949401;28;20615;-62
2023/04/27 00:07:26;;;;;;;6.40;2.45;;;;;;;10.66;50.11;94735.22;4950875;28;20323;-63
2023/04/27 00:09:52;;;;;;;6.95;2.13;;;;;;;10.64;50.54;94742.91;4950112;28;20208;-62
2023/04/27 00:12:19;;;;;;;7.75;2.88;;;;;;;10.54;50.55;94739.91;4951636;28;21810;-61
2023/04/27 00:14:46;;;;;;;7.00;2.97;;;;;;;10.50;51.02;94748.53;4948946;28;20209;-63
2023/04/27 00:17:14;;;;;;;6.95;2.60;;;;;;;10.51;51.25;94744.28;4950418;28;20205;-62
2023/04/27 00:19:41;;;;;;;4.30;2.83;;;;;;;10.49;51.38;94744.31;4949650;28;20236;-65
2023/04/27 00:22:08;;;;;;;6.55;2.53;;;;;;;10.48;50.80;94752.00;4950032;28;20324;-62
2023/04/27 00:24:34;;;;;;;4.68;3.00;;;;;;;10.47;51.36;94752.88;4949003;28;20790;-62
2023/04/27 00:27:01;;;;;;;10.50;2.95;;;;;;;10.41;51.57;94753.13;4950191;28;20303;-62
2023/04/27 00:29:28;;;;;;;6.60;2.45;;;;;;;10.24;51.16;94751.22;4950686;28;20212;-61
2023/04/27 00:31:55;;;;;;;3.33;2.63;;;;;;;10.17;51.75;94749.75;4948946;28;20243;-62
2023/04/27 00:34:23;;;;;;;5.32;2.88;;;;;;;10.14;52.12;94750.72;4948897;28;20301;-62
2023/04/27 00:36:50;;;;;;;5.20;2.90;;;;;;;10.07;51.69;94744.19;4948629;28;20212;-62
2023/04/27 00:39:16;;;;;;;7.03;2.40;;;;;;;10.02;51.80;94750.31;4948754;28;20331;-61
2023/04/27 00:41:43;;;;;;;3.25;2.35;;;;;;;9.95;51.65;94749.72;4950335;28;20324;-62
2023/04/27 00:44:10;;;;;;;5.60;2.60;;;;;;;9.96;52.13;94751.38;4949633;28;20621;-63
2023/04/27 00:46:36;;;;;;;6.13;2.72;;;;;;;9.86;52.38;94755.13;4948916;28;20726;-63
2023/04/27 00:49:04;;;;;;;6.82;2.53;;;;;;;9.86;52.77;94744.97;4948822;28;20350;-62
2023/04/27 00:51:32;;;;;;;4.68;2.78;;;;;;;9.91;52.73;94753.22;4949510;28;20997;-63
2023/04/27 00:54:00;;;;;;;9.27;2.47;;;;;;;9.92;52.25;94754.88;4951172;28;20303;-62
2023/04/27 00:56:27;;;;;;;8.57;2.70;;;;;;;9.82;52.18;94753.59;4949076;28;20255;-64
2023/04/27 00:58:54;;;;;;;5.30;2.22;;;;;;;9.83;52.94;94755.25;4948469;28;20296;-63
2023/04/27 01:01:20;;;;;;;8.02;3.08;;;;;;;9.90;52.48;94746.50;4948472;28;20316;-62
2023/04/27 01:03:47;;;;;;;5.53;3.20;;;;;;;9.77;52.11;94757.97;4949531;28;20647;-63
2023/04/27 01:06:14;;;;;;;9.55;2.30;;;;;;;9.75;52.48;94758.03;4947501;28;20209;-63
2023/04/27 01:08:42;;;;;;;8.18;2.88;;;;;;;9.84;52.52;94756.91;4949692;28;20303;-62
2023/04/27 01:11:09;;;;;;;5.30;2.20;;;;;;;9.80;52.66;94761.25;4949880;28;20311;-60
2023/04/27 01:13:35;;;;;;;4.60;2.60;;;;;;;9.78;52.75;94768.09;4949449;28;20785;-63
2023/04/27 01:16:02;;;;;;;8.23;2.65;;;;;;;9.66;52.83;94762.59;4948718;28;20360;-62
2023/04/27 01:18:29;;;;;;;4.55;2.97;;;;;;;9.60;52.88;94773.81;4948801;28;20660;-63
2023/04/27 01:20:55;;;;;;;7.45;2.08;;;;;;;9.52;53.27;94766.44;4948718;28;20382;-62
2023/04/27 01:23:24;;;;;;;3.70;2.38;;;;;;;9.40;53.09;94769.38;4949120;28;21268;-62
2023/04/27 01:25:50;;;;;;;4.07;2.75;;;;;;;9.41;53.62;94772.75;4949491;28;22063;-61
2023/04/27 01:28:17;;;;;;;5.82;2.75;;;;;;;9.34;53.52;94777.22;4948552;28;20355;-63
2023/04/27 01:30:44;;;;;;;5.38;2.55;;;;;;;9.19;53.92;94776.00;4950370;28;20766;-63
2023/04/27 01:33:10;;;;;;;6.55;2.20;;;;;;;9.22;53.37;94775.06;4949263;28;20254;-63
2023/04/27 01:35:37;;;;;;;3.20;2.05;;;;;;;9.12;53.71;94781.34;4948141;28;20212;-63
2023/04/27 01:38:04;;;;;;;7.80;2.60;;;;;;;9.06;53.92;94792.50;4949285;28;20290;-64
2023/04/27 01:40:32;;;;;;;4.32;2.38;;;;;;;9.06;54.26;94791.66;4948232;28;20768;-62
2023/04/27 01:42:59;;;;;;;3.47;2.10;;;;;;;9.17;53.87;94789.59;4951645;28;20683;-63
2023/04/27 01:45:26;;;;;;;6.82;2.35;;;;;;;9.19;53.54;94783.59;4952008;28;20209;-63
2023/04/27 01:47:53;;;;;;;2.47;2.28;;;;;;;9.06;54.05;94794.22;4953210;28;20259;-63
2023/04/27 01:50:20;;;;;;;3.83;2.30;;;;;;;9.07;53.91;94790.78;4952511;28;20345;-62
2023/04/27 01:52:46;;;;;;;2.35;2.15;;;;;;;8.95;54.14;94788.63;4952473;28;20723;-63
2023/04/27 01:55:13;;;;;;;5.50;2.80;;;;;;;8.91;54.41;94792.16;4952923;28;20200;-63
2023/04/27 01:57:41;;;;;;;2.95;2.33;;;;;;;8.72;54.91;94789.34;4951991;28;20778;-63
2023/04/27 02:00:09;;;;;;;3.30;2.50;;;;;;;8.77;56.01;94784.97;4952268;28;20754;-64
2023/04/27 02:02:36;;;;;;;12.00;3.47;;;;;;;8.65;55.03;94785.38;4953005;28;20265;-63
2023/04/27 02:05:03;;;;;;;4.60;2.22;;;;;;;8.49;55.83;94769.78;4951890;28;20225;-63
2023/04/27 02:07:30;;;;;;;4.90;2.20;;;;;;;8.60;54.74;94793.09;4953524;28;20237;-63
2023/04/27 02:09:56;;;;;;;3.90;2.05;;;;;;;8.63;54.71;94793.00;4951734;28;20692;-62
2023/04/27 02:12:23;;;;;;;2.75;2.15;;;;;;;8.57;55.02;94789.81;4951563;28;20304;-63
2023/04/27 02:14:51;;;;;;;3.58;2.70;;;;;;;8.62;55.29;94791.34;4951412;28;20725;-62
2023/04/27 02:17:18;;;;;;;3.92;2.53;;;;;;;8.60;55.70;94799.88;4952536;28;20766;-62
2023/04/27 02:19:45;;;;;;;4.70;2.80;;;;;;;8.59;54.84;94806.63;4952102;28;20236;-63
2023/04/27 02:22:11;;;;;;;11.98;2.53;;;;;;;8.56;54.85;94786.47;4953007;28;20236;-63
2023/04/27 02:24:38;;;;;;;14.65;2.30;;;;;;;8.70;54.45;94799.53;4951809;28;20298;-62
2023/04/27 02:27:05;;;;;;;4.10;2.50;;;;;;;8.68;55.18;94796.22;4951756;28;20232;-61
2023/04/27 02:29:32;;;;;;;3.53;2.00;;;;;;;8.67;55.35;94804.69;4951798;28;20721;-62
2023/04/27 02:32:00;;;;;;;5.20;2.08;;;;;;;8.78;54.81;94806.91;4952480;28;20291;-63
2023/04/27 02:34:26;;;;;;;5.40;2.63;;;;;;;8.82;54.37;94808.47;4951690;28;20295;-62
2023/04/27 02:36:53;;;;;;;2.47;1.95;;;;;;;8.68;54.56;94805.50;4951982;28;20209;-62
2023/04/27 02:39:20;;;;;;;3.40;2.45;;;;;;;8.60;54.70;94792.28;4951179;28;20347;-62
2023/04/27 02:41:46;;;;;;;7.65;2.20;;;;;;;8.81;54.05;94809.34;4951241;28;20336;-62
2023/04/27 02:44:13;;;;;;;2.72;2.20;;;;;;;8.88;53.80;94808.28;4952321;28;20295;-61
2023/04/27 02:46:40;;;;;;;4.53;2.47;;;;;;;8.79;53.93;94809.41;4951072;28;20352;-63
2023/04/27 02:49:08;;;;;;;6.25;2.40;;;;;;;8.83;54.19;94810.97;4951938;28;20209;-63
2023/04/27 02:51:35;;;;;;;2.40;2.22;;;;;;;8.80;53.85;94807.69;4952085;28;20255;-63
2023/04/27 02:54:02;;;;;;;2.97;2.25;;;;;;;8.78;54.43;94815.34;4950015;28;20295;-61
2023/04/27 02:56:28;;;;;;;6.82;2.90;;;;;;;8.75;54.55;94807.81;4951533;28;20300;-62
2023/04/27 02:58:56;;;;;;;3.83;2.00;;;;;;;8.84;54.17;94812.63;4952756;28;20283;-63
2023/04/27 03:01:22;;;;;;;7.63;2.60;;;;;;;8.81;54.19;94816.94;4951188;28;20293;-62
2023/04/27 03:03:49;;;;;;;12.60;2.33;;;;;;;8.92;53.44;94814.06;4951888;28;20232;-62
2023/04/27 03:06:17;;;;;;;4.90;1.85;;;;;;;8.93;53.72;94815.72;4952732;28;20291;-63
2023/04/27 03:08:44;;;;;;;8.88;2.63;;;;;;;8.92;53.30;94814.91;4952698;28;20197;-65
2023/04/27 03:11:11;;;;;;;4.78;2.25;;;;;;;8.77;54.11;94816.22;4950731;28;20216;-63
2023/04/27 03:13:41;;;;;;;5.60;2.22;;;;;;;8.70;53.75;94822.31;4953547;28;20275;-61
2023/04/27 03:16:09;;;;;;;3.28;2.65;;;;;;;8.68;54.17;94833.38;4951811;28;20778;-63
2023/04/27 03:18:36;;;;;;;5.43;2.45;;;;;;;8.70;53.81;94826.56;4952128;28;20251;-64
2023/04/27 03:21:10;;;;;;;4.35;2.35;;;;;;;8.74;53.83;94826.44;4951276;28;20209;-63
2023/04/27 03:23:38;;;;;;;5.70;2.42;;;;;;;8.70;54.40;94834.16;4951548;28;20216;-62
2023/04/27 03:26:09;;;;;;;4.88;2.78;;;;;;;8.70;54.61;94829.94;4951327;28;20233;-63
2023/04/27 03:28:37;;;;;;;4.53;3.10;;;;;;;8.71;54.29;94835.81;4951317;28;20218;-60
2023/04/27 03:31:06;;;;;;;5.95;2.40;;;;;;;8.76;54.62;94832.28;4952045;28;20212;-63
2023/04/27 03:33:32;;;;;;;3.83;2.58;;;;;;;8.88;53.56;94835.34;4950751;28;20734;-63
2023/04/27 03:36:00;;;;;;;4.63;2.20;;;;;;;8.88;53.80;94833.63;4950699;28;20304;-62
2023/04/27 03:38:27;;;;;;;8.63;2.50;;;;;;;8.82;53.83;94829.56;4950893;28;20209;-63
2023/04/27 03:40:55;;;;;;;4.75;2.08;;;;;;;8.90;54.65;94836.94;4950577;28;20216;-63
2023/04/27 03:43:22;;;;;;;3.75;2.20;;;;;;;8.92;53.90;94840.25;4951947;28;20445;-61
2023/04/27 03:45:49;;;;;;;5.93;2.80;;;;;;;8.91;55.00;94853.00;4951090;28;20255;-61
2023/04/27 03:48:16;;;;;;;4.10;2.05;;;;;;;8.77;54.05;94846.63;4950304;28;20344;-62
2023/04/27 03:50:43;;;;;;;2.15;1.98;;;;;;;9.03;54.13;94845.00;4951068;28;20355;-61
2023/04/27 03:53:11;;;;;;;3.00;2.80;;;;;;;8.86;53.57;94851.41;4950301;28;20319;-62
2023/04/27 03:55:39;;;;;;;5.75;2.90;;;;;;;8.92;53.78;94844.47;4950800;28;20400;-61
2023/04/27 03:58:07;;;;;;;6.38;3.00;;;;;;;9.08;53.46;94851.59;4950043;28;20205;-63
2023/04/27 04:00:34;;;;;;;4.25;2.97;;;;;;;9.11;53.10;94865.88;4950487;28;20225;-62
2023/04/27 04:03:00;;;;;;;16.17;3.10;;;;;;;9.21;53.59;94859.63;4949948;28;20356;-62
2023/04/27 04:05:27;;;;;;;5.45;2.65;;;;;;;9.33;53.17;94860.94;4950760;28;20296;-61
2023/04/27 04:07:54;;;;;;;3.72;2.38;;;;;;;9.38;53.09;94870.06;4950264;28;20342;-61
2023/04/27 04:10:21;;;;;;;9.60;4.38;;;;;;;9.39;51.88;94871.75;4950531;28;21003;-61
2023/04/27 04:12:48;;;;;;;11.68;4.82;;;;;;;9.37;52.31;94881.09;4950285;28;20814;-62
2023/04/27 04:15:16;;;;;;;10.73;3.80;;;;;;;9.38;52.46;94885.28;4950725;28;20298;-68
2023/04/27 04:17:43;;;;;;;4.35;3.10;;;;;;;9.45;52.59;94885.91;4950424;28;22475;-64
2023/04/27 04:20:10;;;;;;;6.97;2.92;;;;;;;9.43;52.24;94885.94;4950983;28;20306;-63
2023/04/27 04:22:37;;;;;;;5.97;2.88;;;;;;;9.48;52.73;94891.72;4948936;28;20237;-63
2023/04/27 04:25:05;;;;;;;11.50;3.95;;;;;;;9.51;51.29;94881.47;4950041;28;20770;-63
2023/04/27 04:27:32;;;;;;;11.85;6.75;;;;;;;9.65;52.64;94892.91;4950074;28;20215;-63
2023/04/27 04:29:59;;;;;;;4.47;3.45;;;;;;;9.66;51.81;94884.38;4950978;28;20300;-61
2023/04/27 04:32:30;;;;;;;7.43;2.92;;;;;;;10.15;51.38;94892.00;4949803;28;20232;-62
2023/04/27 04:34:57;;;;;;;9.63;3.13;;;;;;;11.09;48.69;94899.66;4949902;28;20303;-63
2023/04/27 04:37:24;;;;;;;5.13;3.15;;;;;;;11.99;46.98;94894.34;4949709;28;20296;-63
2023/04/27 04:39:51;;;;;;;11.35;5.75;;;;;;;12.72;44.60;94893.72;4950287;28;20351;-67
2023/04/27 04:42:17;;;;;;;7.03;3.38;;;;;;;13.23;43.07;94897.41;4950111;28;20444;-63
2023/04/27 04:44:44;;;;;;;5.55;2.70;;;;;;;13.65;42.64;94901.34;4949884;28;20267;-63
2023/04/27 04:47:11;;;;;;;3.97;2.97;;;;;;;14.06;41.59;94900.19;4949732;28;20291;-62
2023/04/27 04:49:40;;;;;;;3.67;2.65;;;;;;;14.35;40.48;94905.56;4950844;28;20652;-64
2023/04/27 04:52:06;;;;;;;5.88;2.88;;;;;;;14.64;39.53;94905.75;4950333;28;20539;-63
2023/04/27 04:54:33;;;;;;;5.80;3.40;;;;;;;15.34;38.52;94903.75;4948835;28;20227;-62
2023/04/27 04:57:01;;;;;;;5.00;3.22;;;;;;;15.90;37.34;94913.41;4950177;28;20298;-63
2023/04/27 04:59:27;;;;;;;7.35;3.10;;;;;;;16.54;35.82;94901.19;4950290;28;20220;-63
2023/04/27 05:01:54;;;;;;;9.80;3.55;;;;;;;16.63;35.46;94903.19;4948667;28;21619;-62
2023/04/27 05:04:21;;;;;;;8.00;2.75;;;;;;;16.31;35.79;94892.28;4949215;28;20215;-64
2023/04/27 05:06:49;;;;;;;3.95;2.75;;;;;;;15.91;36.60;94914.25;4948843;28;20260;-62
2023/04/27 05:09:16;;;;;;;5.50;2.85;;;;;;;15.80;36.87;94916.59;4949422;28;20227;-62
2023/04/27 05:11:43;;;;;;;4.65;2.53;;;;;;;15.41;37.53;94910.16;4950346;28;20204;-63
2023/04/27 05:14:10;;;;;;;7.80;3.00;;;;;;;15.50;37.09;94913.97;4948139;28;20299;-63
2023/04/27 05:16:36;;;;;;;3.90;3.28;;;;;;;15.92;36.92;94928.69;4948934;28;20263;-63
2023/04/27 05:19:04;;;;;;;7.40;3.85;;;;;;;16.21;36.38;94921.91;4949193;28;20312;-63
2023/04/27 05:21:32;;;;;;;9.77;3.10;;;;;;;16.07;36.82;94914.22;4949319;28;20682;-62
2023/04/27 05:24:00;;;;;;;4.43;3.25;;;;;;;15.77;37.08;94921.88;4948735;28;21228;-63
2023/04/27 05:26:27;;;;;;;9.18;3.28;;;;;;;15.44;37.93;94925.38;4948936;28;20328;-62
2023/04/27 05:28:54;;;;;;;6.03;3.25;;;;;;;15.52;37.86;94925.78;4949068;28;20309;-61
2023/04/27 05:31:20;;;;;;;7.57;2.90;;;;;;;16.49;35.55;94926.28;4948316;28;20292;-62
2023/04/27 05:33:47;;;;;;;3.50;3.20;;;;;;;16.10;36.43;94924.25;4949109;28;20382;-63
2023/04/27 05:36:14;;;;;;;9.00;3.35;;;;;;;15.70;37.16;94928.25;4949373;28;20782;-65
2023/04/27 05:38:41;;;;;;;4.85;3.08;;;;;;;15.24;38.08;94935.88;4948878;28;20209;-64
2023/04/27 05:41:09;;;;;;;6.47;3.10;;;;;;;14.95;38.41;94933.13;4949603;28;20211;-62
2023/04/27 05:43:37;;;;;;;5.93;3.45;;;;;;;14.80;38.90;94949.28;4949830;28;20287;-63
2023/04/27 05:46:04;;;;;;;3.63;3.15;;;;;;;14.76;38.78;94935.00;4948492;28;20689;-59
2023/04/27 05:48:31;;;;;;;8.48;3.03;;;;;;;14.80;39.22;94944.16;4949145;28;20240;-61
2023/04/27 05:51:01;;;;;;;8.85;3.38;;;;;;;14.87;39.09;94940.34;4947336;28;20229;-62
2023/04/27 05:53:28;;;;;;;7.18;3.10;;;;;;;15.18;38.63;94928.50;4949514;28;21006;-61
2023/04/27 05:55:55;;;;;;;8.45;3.22;;;;;;;15.67;37.75;94931.00;4949429;28;21940;-65
2023/04/27 05:58:23;;;;;;;5.75;3.50;;;;;;;16.85;36.69;94934.38;4948805;28;20660;-61
2023/04/27 06:00:51;;;;;;;5.18;4.10;;;;;;;20.21;30.76;94926.50;4949681;28;20241;-63
2023/04/27 06:03:18;;;;;;;5.63;3.50;;;;;;;22.34;27.03;94920.22;4948594;28;20213;-64
2023/04/27 06:05:44;;;;;;;5.20;3.15;;;;;;;23.26;25.37;94922.91;4948120;28;20296;-64
2023/04/27 06:08:12;;;;;;;4.78;3.50;;;;;;;24.38;24.08;94909.56;4948568;28;20327;-66
2023/04/27 06:10:39;;;;;;;4.75;3.03;;;;;;;24.26;24.18;94910.66;4948830;28;20600;-62
2023/04/27 06:13:06;;;;;;;5.03;4.53;;;;;;;23.22;25.11;94924.13;4949029;28;20275;-64
2023/04/27 06:15:34;;;;;;;7.25;4.05;;;;;;;22.52;25.88;94917.09;4948201;28;20305;-66
2023/04/27 06:18:00;;;;;;;6.53;3.65;;;;;;;24.00;24.31;94918.19;4949660;28;20235;-64
2023/04/27 06:20:27;;;;;;;7.90;3.92;;;;;;;25.11;22.96;94913.22;4947673;28;20236;-64
2023/04/27 06:22:54;;;;;;;6.15;3.58;;;;;;;25.79;22.26;94908.50;4948593;28;20298;-64
2023/04/27 06:25:21;;;;;;;7.03;3.15;;;;;;;26.89;21.22;94898.50;4948907;28;20224;-64
2023/04/27 06:27:47;;;;;;;5.22;3.25;;;;;;;28.55;20.12;94902.06;4947988;28;20291;-64
2023/04/27 06:30:14;;;;;;;6.43;3.00;;;;;;;28.90;19.07;94906.16;4952061;28;20686;-64
2023/04/27 06:32:42;;;;;;;4.80;2.95;;;;;;;31.07;17.79;94906.78;4953164;28;20377;-64
2023/04/27 06:35:10;;;;;;;6.05;3.53;;;;;;;33.73;15.88;94886.16;4952301;28;20339;-65
2023/04/27 06:37:37;;;;;;;3.22;2.92;;;;;;;36.21;13.85;94883.66;4951343;28;20200;-65
2023/04/27 06:40:04;;;;;;;3.40;3.03;;;;;;;37.84;13.07;94891.34;4952710;28;20216;-67
2023/04/27 06:42:31;;;;;;;3.15;2.78;;;;;;;38.95;12.55;94886.22;4952167;28;21570;-71
2023/04/27 06:44:58;;;;;;;2.63;2.42;;;;;;;39.34;12.06;94882.06;4952655;28;20288;-66
2023/04/27 06:47:25;;;;;;;6.97;3.30;;;;;;;40.24;11.28;94881.44;4953374;28;20213;-66
2023/04/27 06:49:53;;;;;;;4.65;4.25;;;;;;;40.33;10.86;94885.38;4951834;28;20229;-66
2023/04/27 06:52:19;;;;;;;5.25;4.05;;;;;;;40.23;11.45;94884.34;4952218;28;20321;-66
2023/04/27 06:54:46;;;;;;;4.80;3.65;;;;;;;40.18;10.86;94885.06;4952711;28;20236;-67
2023/04/27 06:57:13;;;;;;;12.48;4.97;;;;;;;40.58;11.16;94878.84;4951609;28;20553;-65
2023/04/27 06:59:40;;;;;;;9.27;3.97;;;;;;;41.08;11.03;94876.94;4951456;28;20280;-65
2023/04/27 07:02:07;;;;;;;4.32;3.30;;;;;;;41.29;10.68;94869.28;4951597;28;20237;-67
2023/04/27 07:04:35;;;;;;;7.43;6.35;;;;;;;41.37;10.12;94868.81;4950166;28;20209;-65
2023/04/27 07:07:03;;;;;;;4.63;4.22;;;;;;;41.38;10.49;94875.78;4950343;28;20299;-67
2023/04/27 07:09:30;;;;;;;6.85;3.88;;;;;;;42.19;9.79;94870.59;4948156;28;20345;-65
2023/04/27 07:11:57;;;;;;;7.60;5.18;;;;;;;42.96;9.84;94871.03;4948582;28;20283;-65
2023/04/27 07:14:24;;;;;;;5.03;4.13;;;;;;;42.97;9.72;94872.63;4948269;28;20280;-67
2023/04/27 07:16:51;;;;;;;10.00;4.90;;;;;;;42.68;9.93;94879.34;4947780;28;20224;-66
2023/04/27 07:19:18;;;;;;;7.07;4.38;;;;;;;42.17;9.81;94873.53;4947181;28;20268;-69
2023/04/27 07:21:45;;;;;;;4.53;4.05;;;;;;;41.57;10.29;94866.44;4948689;28;20329;-67
2023/04/27 07:24:13;;;;;;;6.50;4.15;;;;;;;41.19;10.04;94866.47;4949265;28;20292;-65
2023/04/27 07:26:40;;;;;;;3.80;3.40;;;;;;;42.23;10.31;94867.19;4951020;28;20291;-65
2023/04/27 07:29:08;;;;;;;4.22;3.80;;;;;;;41.35;10.02;94869.06;4951912;28;20212;-67
2023/04/27 07:31:35;;;;;;;5.18;3.60;;;;;;;39.47;10.62;94870.38;4948173;28;20683;-66
2023/04/27 07:34:02;;;;;;;3.05;2.75;;;;;;;38.84;11.04;94865.78;4948252;28;20411;-66
2023/04/27 07:36:28;;;;;;;4.65;4.18;;;;;;;36.66;12.19;94870.31;4948700;28;20225;-68
2023/04/27 07:38:57;;;;;;;4.10;2.80;;;;;;;33.31;13.97;94875.88;4947873;28;20715;-65
2023/04/27 07:41:25;;;;;;;3.50;3.05;;;;;;;30.25;15.55;94886.69;4949371;28;20205;-66
2023/04/27 07:43:51;;;;;;;2.88;2.58;;;;;;;28.16;17.40;94888.84;4948130;28;20773;-65
2023/04/27 07:46:18;;;;;;;2.60;2.40;;;;;;;27.72;17.84;94889.06;4947001;28;20650;-65
2023/04/27 07:48:45;;;;;;;5.82;2.90;;;;;;;28.74;17.55;94880.78;4945964;28;20711;-64
2023/04/27 07:51:14;;;;;;;3.38;2.95;;;;;;;30.28;16.47;94879.28;4947758;28;20283;-64
2023/04/27 07:53:41;;;;;;;3.60;2.53;;;;;;;32.85;14.68;94868.50;4942888;28;20234;-66
2023/04/27 07:56:10;;;;;;;4.43;3.72;;;;;;;34.95;13.05;94880.66;4947880;28;20721;-64
2023/04/27 07:58:38;;;;;;;3.28;2.72;;;;;;;36.66;12.57;94870.31;4947213;28;20205;-64
2023/04/27 08:01:04;;;;;;;3.35;2.65;;;;;;;35.22;13.01;94880.59;4945151;28;20724;-63
2023/04/27 08:03:31;;;;;;;2.80;2.50;;;;;;;32.01;14.54;94878.88;4948272;28;20288;-64
2023/04/27 08:05:58;;;;;;;3.45;2.38;;;;;;;30.76;15.73;94877.25;4946031;28;20667;-65
2023/04/27 08:08:25;;;;;;;3.83;2.75;;;;;;;30.98;15.64;94884.22;4948830;28;20279;-64
2023/04/27 08:10:51;;;;;;;8.32;2.22;;;;;;;29.88;16.04;94882.19;4950097;28;20212;-62
2023/04/27 08:13:18;;;;;;;9.57;3.25;;;;;;;29.44;17.10;94885.38;4946734;28;20379;-65
2023/04/27 08:15:46;;;;;;;12.85;10.05;;;;;;;30.21;16.99;94877.53;4948528;28;20910;-72
2023/04/27 08:18:13;;;;;;;5.65;5.13;;;;;;;33.19;14.81;94882.66;4950263;28;20770;-75
2023/04/27 08:20:39;;;;;;;4.90;4.50;;;;;;;35.01;14.03;94873.75;4949843;28;20291;-70
2023/04/27 08:23:06;;;;;;;7.30;4.03;;;;;;;36.32;13.10;94872.44;4950705;28;20212;-73
2023/04/27 08:25:33;;;;;;;3.55;2.88;;;;;;;35.86;12.31;94869.25;4951035;28;20308;-69
2023/04/27 08:28:00;;;;;;;4.20;3.63;;;;;;;36.19;13.13;94874.31;4950764;28;20306;-75
2023/04/27 08:30:26;;;;;;;4.38;3.97;;;;;;;38.09;11.72;94873.47;4948300;28;20205;-69
2023/04/27 08:32:54;;;;;;;4.43;3.15;;;;;;;39.62;10.99;94860.03;4951085;28;22331;-65
2023/04/27 08:35:21;;;;;;;3.35;3.13;;;;;;;39.85;10.36;94853.00;4949774;28;20252;-71
2023/04/27 08:37:48;;;;;;;5.53;3.33;;;;;;;36.98;11.76;94868.41;4950500;28;20220;-66
2023/04/27 08:40:15;;;;;;;3.45;2.92;;;;;;;33.50;14.24;94874.31;4949660;28;20283;-67
2023/04/27 08:42:54;;;;;;;4.85;2.75;;;;;;;31.92;15.77;94872.13;4945650;28;20232;-65
2023/04/27 08:45:22;;;;;;;3.78;2.63;;;;;;;31.55;15.50;94882.78;4950525;28;20286;-65
2023/04/27 08:47:49;;;;;;;2.85;2.58;;;;;;;33.13;14.99;94879.81;4950848;28;20291;-67
2023/04/27 08:50:18;;;;;;;3.05;2.10;;;;;;;35.98;13.00;94868.34;4945823;28;20255;-67
2023/04/27 08:52:45;;;;;;;28.05;21.02;;;;;;;38.57;11.88;94872.59;4943746;28;20840;-65
2023/04/27 08:55:12;;;;;;;10.20;6.43;;;;;;;39.20;11.30;94863.94;4948495;28;21985;-70
2023/04/27 08:57:38;;;;;;;5.78;3.60;;;;;;;38.18;11.27;94869.47;4946907;28;20694;-70
2023/04/27 09:00:12;;;;;;;4.32;3.92;;;;;;;36.42;12.58;94867.44;4946937;28;20233;-64
2023/04/27 09:02:45;;;;;;;4.10;2.63;;;;;;;35.38;13.26;94869.63;4949602;28;21157;-71
2023/04/27 09:05:17;;;;;;;6.30;2.30;;;;;;;34.04;13.66;94867.22;4949638;28;20286;-69
2023/04/27 09:07:55;;;;;;;2.55;2.35;;;;;;;34.75;13.70;94856.91;4948891;28;20229;-65
2023/04/27 09:10:23;;;;;;;5.05;2.75;;;;;;;35.16;13.05;94855.00;4949906;28;20608;-64
2023/04/27 09:13:00;;;;;;;3.40;3.10;;;;;;;33.53;14.19;94868.66;4948407;28;20290;-65
2023/04/27 09:15:28;;;;;;;6.57;2.05;;;;;;;32.59;14.67;94860.38;4948205;28;20664;-63
2023/04/27 09:17:56;;;;;;;4.28;2.35;;;;;;;32.56;14.46;94860.75;4948929;28;20209;-63
2023/04/27 09:20:25;;;;;;;5.28;2.25;;;;;;;32.04;14.86;94848.78;4947912;28;20205;-63
2023/04/27 09:22:54;;;;;;;7.78;2.60;;;;;;;29.36;16.51;94861.81;4946966;28;21631;-64
2023/04/27 09:25:26;;;;;;;5.28;2.42;;;;;;;27.15;18.96;94863.75;4948604;28;20215;-62
2023/04/27 09:27:53;;;;;;;6.57;2.70;;;;;;;26.49;19.53;94864.34;4948262;28;20204;-65
2023/04/27 09:30:20;;;;;;;4.18;1.80;;;;;;;26.43;19.24;94858.78;4949625;28;20258;-62
2023/04/27 09:32:52;;;;;;;5.28;2.38;;;;;;;26.56;19.27;94860.16;4949048;28;20240;-62
2023/04/27 09:35:22;;;;;;;2.95;2.75;;;;;;;25.64;20.62;94863.94;4948456;28;20238;-61
2023/04/27 09:37:52;;;;;;;3.95;1.73;;;;;;;24.72;21.05;94855.34;4949840;28;20355;-64
2023/04/27 09:40:22;;;;;;;5.63;2.47;;;;;;;24.53;21.71;94855.38;4948997;28;22510;-62
2023/04/27 09:42:50;;;;;;;3.50;2.67;;;;;;;23.86;21.99;94851.09;4948468;28;20212;-65
2023/04/27 09:45:17;;;;;;;2.65;2.30;;;;;;;22.97;22.78;94858.84;4949643;28;20228;-64
2023/04/27 09:47:45;;;;;;;2.55;2.30;;;;;;;22.06;23.62;94858.72;4950491;28;21243;-62
2023/04/27 09:50:13;;;;;;;2.67;2.47;;;;;;;21.56;24.20;94853.25;4949422;28;20260;-62
2023/04/27 09:52:40;;;;;;;4.00;2.17;;;;;;;21.42;24.91;94850.13;4949571;28;20624;-62
2023/04/27 09:55:11;;;;;;;3.38;2.80;;;;;;;21.66;24.63;94846.41;4949589;28;20220;-63
2023/04/27 09:57:45;;;;;;;5.20;2.45;;;;;;;21.77;24.33;94849.91;4949745;28;20217;-61
2023/04/27 10:00:26;;;;;;;2.50;2.30;;;;;;;21.33;24.99;94851.69;4948684;28;20211;-66
2023/04/27 10:03:06;;;;;;;5.03;2.80;;;;;;;20.73;26.17;94858.09;4948716;28;20213;-62
2023/04/27 10:05:56;;;;;;;4.55;2.53;;;;;;;20.17;25.94;94842.50;4953945;28;20205;-64
2023/04/27 10:08:23;;;;;;;4.68;2.40;;;;;;;20.37;25.96;94852.19;4951755;28;20335;-65
2023/04/27 10:10:53;;;;;;;3.83;2.30;;;;;;;20.61;25.56;94841.75;4952815;28;20204;-64
2023/04/27 10:13:25;;;;;;;3.65;2.20;;;;;;;20.76;25.73;94846.69;4953551;28;20272;-63
2023/04/27 10:15:51;;;;;;;2.72;2.42;;;;;;;20.92;24.97;94841.97;4953678;28;20267;-62
2023/04/27 10:18:29;;;;;;;2.20;2.00;;;;;;;21.46;25.12;94847.19;4953239;28;20244;-62
2023/04/27 10:20:56;;;;;;;2.22;2.10;;;;;;;22.16;24.20;94851.84;4952109;28;20671;-63
2023/04/27 10:23:25;;;;;;;4.10;2.33;;;;;;;22.56;23.66;94838.16;4952550;28;20292;-61
2023/04/27 10:25:54;;;;;;;3.08;2.45;;;;;;;22.53;23.29;94841.00;4951543;28;20726;-62
2023/04/27 10:28:21;;;;;;;3.85;2.67;;;;;;;22.14;23.08;94840.81;4952679;28;20204;-63
2023/04/27 10:30:48;;;;;;;6.13;2.22;;;;;;;21.78;23.81;94836.81;4952115;28;20684;-62
2023/04/27 10:33:18;;;;;;;2.22;2.10;;;;;;;21.42;24.42;94848.38;4953048;28;20618;-64
2023/04/27 10:35:53;;;;;;;3.28;2.80;;;;;;;21.32;24.68;94840.50;4950882;28;20726;-64
2023/04/27 10:38:22;;;;;;;3.42;2.42;;;;;;;21.52;24.67;94843.31;4953117;28;20215;-62
2023/04/27 10:40:57;;;;;;;4.50;2.20;;;;;;;21.61;24.34;94842.53;4952462;28;20292;-65
2023/04/27 10:43:26;;;;;;;2.35;1.90;;;;;;;21.70;24.15;94839.22;4952257;28;20232;-62
2023/04/27 10:45:53;;;;;;;5.05;2.25;;;;;;;21.86;24.13;94833.63;4951417;28;20209;-63
2023/04/27 10:48:20;;;;;;;5.85;3.70;;;;;;;21.83;23.68;94845.03;4953441;28;20299;-64
2023/04/27 10:50:47;;;;;;;2.75;2.55;;;;;;;21.57;23.73;94833.38;4951252;28;20343;-62
2023/04/27 10:53:14;;;;;;;2.30;2.15;;;;;;;21.35;23.86;94844.63;4952660;28;20209;-63
2023/04/27 10:55:41;;;;;;;2.65;1.98;;;;;;;21.17;24.13;94843.47;4951316;28;20790;-65
2023/04/27 10:58:09;;;;;;;5.45;2.40;;;;;;;21.13;23.99;94839.47;4951631;28;20213;-63
2023/04/27 11:00:42;;;;;;;3.72;2.20;;;;;;;20.71;24.34;94834.97;4951541;28;20299;-63
2023/04/27 11:03:13;;;;;;;4.18;2.47;;;;;;;20.56;24.95;94845.63;4951694;28;20344;-64
2023/04/27 11:05:41;;;;;;;2.65;2.45;;;;;;;20.60;24.80;94842.69;4951402;28;20794;-63
2023/04/27 11:08:10;;;;;;;2.38;2.17;;;;;;;20.45;24.54;94833.53;4950350;28;20237;-63
2023/04/27 11:10:40;;;;;;;2.92;1.77;;;;;;;20.18;25.58;94839.00;4952833;28;20263;-63
2023/04/27 11:13:10;;;;;;;2.28;2.08;;;;;;;19.99;25.87;94830.97;4952271;28;20566;-62
2023/04/27 11:15:48;;;;;;;3.20;2.25;;;;;;;19.94;26.39;94833.88;4949668;28;20593;-65
2023/04/27 11:18:16;;;;;;;2.38;1.88;;;;;;;20.07;25.81;94843.28;4952230;28;20209;-62
2023/04/27 11:20:43;;;;;;;9.52;2.40;;;;;;;20.20;25.82;94839.69;4951468;28;20213;-64
2023/04/27 11:23:10;;;;;;;2.92;2.33;;;;;;;20.24;26.02;94850.63;4952162;28;20291;-63
2023/04/27 11:25:37;;;;;;;3.25;2.40;;;;;;;20.34;25.64;94847.22;4950543;28;20818;-63
2023/04/27 11:28:05;;;;;;;4.68;2.10;;;;;;;20.47;25.86;94846.34;4952044;28;20209;-63
2023/04/27 11:30:33;;;;;;;4.75;2.85;;;;;;;20.47;25.55;94852.31;4951626;28;20217;-63
2023/04/27 11:33:08;;;;;;;2.40;2.17;;;;;;;20.42;25.59;94848.44;4952079;28;20209;-62
2023/04/27 11:35:35;;;;;;;3.50;2.38;;;;;;;20.17;26.05;94857.16;4950339;28;20231;-63
2023/04/27 11:38:02;;;;;;;8.45;2.70;;;;;;;19.83;26.25;94851.91;4952153;28;21703;-68